Time;durP1;ratioP1;P1;durP2;ratioP2;P2;SDS_P1;SDS_P2;PMS_P1;PMS_P2;Temp;Humidity;BMP_temperature;BMP_pressure;BME280_temperature;BME280_humidity;BME280_pressure;Samples;Min_cycle;Max_cycle;Signal;HPM_P1;HPM_P2
2023/03/13 00:00:50;;;;;;;24.00;4.80;;;8.70;99.90;;;;;;4993567;28;20050;-79
2023/03/13 00:03:16;;;;;;;27.83;4.03;;;8.60;99.90;;;;;;4993759;28;20093;-80
2023/03/13 00:05:42;;;;;;;26.67;4.50;;;8.70;99.90;;;;;;4993847;28;20082;-80
2023/03/13 00:08:07;;;;;;;22.77;3.33;;;8.70;99.90;;;;;;4992698;28;20066;-80
2023/03/13 00:10:37;;;;;;;22.98;4.38;;;8.70;99.90;;;;;;4993483;28;20054;-80
2023/03/13 00:13:03;;;;;;;16.05;4.00;;;8.60;99.90;;;;;;4993256;28;20495;-81
2023/03/13 00:15:29;;;;;;;21.10;4.05;;;8.60;99.90;;;;;;4993656;28;20145;-80
2023/03/13 00:17:54;;;;;;;21.73;5.03;;;8.60;99.90;;;;;;4992033;28;20133;-80
2023/03/13 00:20:20;;;;;;;24.70;4.45;;;8.60;99.90;;;;;;4992127;28;20069;-80
2023/03/13 00:22:46;;;;;;;13.43;4.03;;;8.60;99.90;;;;;;4992164;28;20042;-81
2023/03/13 00:25:12;;;;;;;21.27;3.65;;;8.50;99.90;;;;;;4992578;28;20531;-80
2023/03/13 00:27:38;;;;;;;30.52;3.67;;;8.50;99.90;;;;;;4992951;28;20129;-80
2023/03/13 00:30:05;;;;;;;19.00;3.50;;;8.50;99.90;;;;;;4992018;28;20054;-80
2023/03/13 00:32:30;;;;;;;26.23;3.88;;;8.50;99.90;;;;;;4991921;28;20074;-81
2023/03/13 00:34:56;;;;;;;13.80;3.55;;;8.50;99.90;;;;;;4992514;28;20530;-81
2023/03/13 00:37:22;;;;;;;12.35;3.25;;;8.50;99.90;;;;;;4992682;28;20494;-81
2023/03/13 00:39:47;;;;;;;23.33;3.13;;;8.50;99.90;;;;;;4992206;28;20403;-81
2023/03/13 00:42:13;;;;;;;16.30;4.20;;;8.50;99.90;;;;;;4992350;28;20104;-82
2023/03/13 00:44:39;;;;;;;26.48;4.43;;;8.50;99.90;;;;;;4991960;28;20046;-81
2023/03/13 00:47:05;;;;;;;26.00;5.18;;;8.50;99.90;;;;;;4991718;28;20085;-82
2023/03/13 00:49:32;;;;;;;20.75;3.95;;;8.40;99.90;;;;;;4992078;28;20046;-82
2023/03/13 00:51:57;;;;;;;;;;;8.40;99.90;;;;;;4992227;28;20046;-82
2023/03/13 00:54:23;;;;;;;22.55;3.10;;;8.40;99.90;;;;;;4991878;28;19921;-81
2023/03/13 00:56:49;;;;;;;24.88;4.32;;;8.40;99.90;;;;;;4991597;28;20257;-82
2023/03/13 00:59:15;;;;;;;15.32;3.88;;;8.40;99.90;;;;;;4992602;28;20484;-82
2023/03/13 01:01:41;;;;;;;15.05;3.42;;;8.40;99.90;;;;;;4992916;28;20089;-83
2023/03/13 01:04:09;;;;;;;13.77;2.80;;;8.40;99.90;;;;;;4991156;28;20125;-83
2023/03/13 01:06:37;;;;;;;14.60;3.03;;;8.40;99.90;;;;;;4992389;28;20050;-82
2023/03/13 01:09:07;;;;;;;20.83;4.32;;;8.40;99.90;;;;;;4991856;28;20054;-83
2023/03/13 01:11:36;;;;;;;10.95;3.13;;;8.40;99.90;;;;;;4991127;28;20403;-83
2023/03/13 01:14:04;;;;;;;21.25;3.22;;;8.30;99.90;;;;;;4992197;28;20057;-83
2023/03/13 01:16:32;;;;;;;22.23;3.60;;;8.30;99.90;;;;;;4992532;28;20046;-83
2023/03/13 01:19:07;;;;;;;13.70;2.58;;;8.30;99.90;;;;;;4992111;28;20078;-80
2023/03/13 01:21:33;;;;;;;13.90;3.13;;;8.40;99.90;;;;;;4992586;28;20082;-82
2023/03/13 01:23:59;;;;;;;21.17;3.63;;;8.40;99.90;;;;;;4991658;28;20552;-82
2023/03/13 01:26:25;;;;;;;;;;;8.40;99.90;;;;;;4991120;28;20050;-82
2023/03/13 01:28:51;;;;;;;21.08;3.42;;;8.40;99.90;;;;;;4992530;28;19975;-82
2023/03/13 01:31:19;;;;;;;;;;;8.40;99.90;;;;;;4992472;28;20046;-81
2023/03/13 01:33:47;;;;;;;18.35;2.83;;;8.40;99.90;;;;;;4992220;28;19926;-82
2023/03/13 01:36:13;;;;;;;11.43;2.97;;;8.40;99.90;;;;;;4990579;28;20186;-82
2023/03/13 01:38:39;;;;;;;13.40;3.20;;;8.50;99.90;;;;;;4991624;28;20188;-82
2023/03/13 01:41:07;;;;;;;13.45;2.95;;;8.50;99.90;;;;;;4991480;28;20137;-82
2023/03/13 01:43:35;;;;;;;24.17;4.28;;;8.50;99.90;;;;;;4992386;28;20046;-81
2023/03/13 01:46:07;;;;;;;17.02;3.03;;;8.50;99.90;;;;;;4991060;28;20066;-79
2023/03/13 01:48:43;;;;;;;20.50;3.55;;;8.50;99.90;;;;;;4992009;28;20196;-81
2023/03/13 01:51:24;;;;;;;19.83;4.18;;;8.60;99.90;;;;;;4991893;28;20046;-81
2023/03/13 01:54:10;;;;;;;23.35;3.88;;;8.60;99.90;;;;;;4991849;28;20058;-81
2023/03/13 01:56:49;;;;;;;19.33;3.17;;;8.60;99.90;;;;;;4990202;28;20531;-81
2023/03/13 01:59:21;;;;;;;15.02;3.78;;;8.70;99.90;;;;;;4991983;28;20301;-81
2023/03/13 02:01:47;;;;;;;12.98;3.40;;;8.60;99.90;;;;;;4992293;28;20411;-81
2023/03/13 02:04:15;;;;;;;11.75;2.60;;;8.60;99.90;;;;;;4991774;28;20050;-81
2023/03/13 02:06:43;;;;;;;17.42;3.20;;;8.60;99.90;;;;;;4990816;28;20050;-81
2023/03/13 02:09:14;;;;;;;20.08;2.90;;;8.60;99.90;;;;;;4989683;28;20050;-80
2023/03/13 02:11:56;;;;;;;13.70;3.30;;;8.60;99.90;;;;;;4991294;28;20054;-80
2023/03/13 02:14:26;;;;;;;16.08;3.53;;;8.60;99.90;;;;;;4991922;28;20053;-81
2023/03/13 02:16:53;;;;;;;16.75;3.70;;;8.60;99.90;;;;;;4992164;28;20046;-81
2023/03/13 02:19:30;;;;;;;11.57;3.13;;;8.50;99.90;;;;;;4991577;28;20046;-81
2023/03/13 02:22:14;;;;;;;;;;;8.50;99.90;;;;;;4992480;28;20050;-81
2023/03/13 02:25:05;;;;;;;6.18;2.13;;;8.50;99.90;;;;;;4991918;28;19928;-81
2023/03/13 02:27:31;;;;;;;11.65;2.05;;;8.50;99.90;;;;;;4990584;28;20042;-81
2023/03/13 02:29:58;;;;;;;13.65;3.83;;;8.40;99.90;;;;;;4991857;28;20046;-81
2023/03/13 02:32:26;;;;;;;11.32;2.80;;;8.40;99.90;;;;;;4991445;28;20472;-81
2023/03/13 02:34:55;;;;;;;8.20;2.40;;;8.50;99.90;;;;;;4991926;28;20129;-81
2023/03/13 02:37:22;;;;;;;10.20;2.97;;;8.50;99.90;;;;;;4991079;28;20065;-81
2023/03/13 02:39:50;;;;;;;8.13;2.70;;;8.50;99.90;;;;;;4991885;28;20053;-81
2023/03/13 02:42:18;;;;;;;10.27;2.78;;;8.50;99.90;;;;;;4990825;28;20500;-80
2023/03/13 02:44:45;;;;;;;7.35;2.30;;;8.40;99.90;;;;;;4991780;28;20093;-80
2023/03/13 02:47:16;;;;;;;10.60;2.28;;;8.50;99.90;;;;;;4991050;28;20496;-80
2023/03/13 02:49:41;;;;;;;8.82;2.42;;;8.50;99.90;;;;;;4991429;28;20046;-79
2023/03/13 02:52:37;;;;;;;11.55;2.20;;;8.50;99.90;;;;;;4991177;28;20046;-79
2023/03/13 02:55:13;;;;;;;11.75;2.65;;;8.60;99.90;;;;;;4989743;28;20077;-78
2023/03/13 02:57:38;;;;;;;11.63;2.58;;;8.60;99.90;;;;;;4993843;28;20051;-78
2023/03/13 03:00:11;;;;;;;4.30;1.45;;;8.60;99.90;;;;;;4995274;28;20060;-78
2023/03/13 03:02:37;;;;;;;7.85;2.30;;;8.60;99.90;;;;;;4994902;28;20543;-78
2023/03/13 03:05:03;;;;;;;6.57;2.13;;;8.60;99.90;;;;;;4995103;28;20440;-78
2023/03/13 03:07:29;;;;;;;;;;;8.60;99.90;;;;;;4994730;28;20048;-78
2023/03/13 03:09:54;;;;;;;6.40;1.80;;;8.60;99.90;;;;;;4995148;28;20353;-77
2023/03/13 03:12:20;;;;;;;4.93;1.92;;;8.60;99.90;;;;;;4994049;28;20054;-77
2023/03/13 03:14:46;;;;;;;15.93;1.95;;;8.60;99.90;;;;;;4994945;28;20387;-77
2023/03/13 03:17:12;;;;;;;4.97;2.05;;;8.60;99.90;;;;;;4994475;28;20133;-77
2023/03/13 03:19:37;;;;;;;7.07;2.50;;;8.70;99.90;;;;;;4994945;28;20057;-77
2023/03/13 03:22:04;;;;;;;5.82;1.77;;;8.70;99.90;;;;;;4994565;28;20070;-77
2023/03/13 03:24:29;;;;;;;6.25;1.83;;;8.80;99.90;;;;;;4994005;28;20042;-77
2023/03/13 03:26:55;;;;;;;6.85;2.00;;;8.80;99.90;;;;;;4994454;28;20109;-77
2023/03/13 03:29:21;;;;;;;7.63;1.48;;;8.80;99.90;;;;;;4993397;28;20058;-77
2023/03/13 03:31:46;;;;;;;4.63;1.85;;;8.80;99.90;;;;;;4994950;28;20042;-77
2023/03/13 03:34:12;;;;;;;3.60;1.63;;;8.80;99.90;;;;;;4994415;28;20042;-77
2023/03/13 03:36:38;;;;;;;8.98;2.03;;;8.90;99.90;;;;;;4994404;28;20085;-77
2023/03/13 03:39:04;;;;;;;5.68;1.90;;;8.90;99.90;;;;;;4993923;28;20039;-77
2023/03/13 03:41:30;;;;;;;4.35;1.90;;;9.00;99.90;;;;;;4993746;28;20454;-77
2023/03/13 03:43:56;;;;;;;4.25;1.75;;;9.00;99.90;;;;;;4994779;28;20061;-77
2023/03/13 03:46:21;;;;;;;4.38;1.88;;;9.00;99.90;;;;;;4994109;28;20038;-77
2023/03/13 03:48:47;;;;;;;4.30;1.73;;;9.10;99.90;;;;;;4994323;28;20046;-77
2023/03/13 03:51:13;;;;;;;5.20;2.42;;;9.10;99.90;;;;;;4993754;28;20148;-76
2023/03/13 03:53:39;;;;;;;4.03;1.90;;;9.10;99.90;;;;;;4993946;28;20050;-76
2023/03/13 03:56:05;;;;;;;6.55;2.22;;;9.10;99.90;;;;;;4993302;28;20065;-76
2023/03/13 03:58:30;;;;;;;12.23;2.85;;;9.20;99.90;;;;;;4993792;28;20058;-76
2023/03/13 04:00:57;;;;;;;4.40;2.47;;;9.20;99.90;;;;;;4994187;28;20390;-76
2023/03/13 04:03:23;;;;;;;5.18;1.77;;;9.20;99.90;;;;;;4993677;28;20047;-76
2023/03/13 04:05:49;;;;;;;6.22;2.33;;;9.30;99.90;;;;;;4994023;28;20496;-76
2023/03/13 04:08:15;;;;;;;4.65;2.30;;;9.30;99.90;;;;;;4992123;28;20085;-76
2023/03/13 04:10:41;;;;;;;5.15;1.95;;;9.30;99.90;;;;;;4993580;28;20046;-75
2023/03/13 04:13:07;;;;;;;9.85;2.63;;;9.40;99.90;;;;;;4993718;28;20081;-76
2023/03/13 04:15:33;;;;;;;5.70;1.85;;;9.40;99.90;;;;;;4993489;28;20054;-76
2023/03/13 04:17:59;;;;;;;4.18;2.10;;;9.40;99.90;;;;;;4993386;28;20057;-76
2023/03/13 04:20:24;;;;;;;7.20;2.20;;;9.40;99.90;;;;;;4993136;28;20065;-76
2023/03/13 04:22:50;;;;;;;6.70;2.17;;;9.40;99.90;;;;;;4993407;28;20494;-76
2023/03/13 04:25:16;;;;;;;5.00;2.03;;;9.50;99.90;;;;;;4993127;28;20049;-76
2023/03/13 04:27:42;;;;;;;3.80;2.22;;;9.50;99.90;;;;;;4993563;28;20046;-76
2023/03/13 04:30:08;;;;;;;4.57;2.20;;;9.50;99.90;;;;;;4993619;28;20053;-76
2023/03/13 04:32:34;;;;;;;7.03;2.20;;;9.60;99.90;;;;;;4992721;28;20480;-76
2023/03/13 04:35:00;;;;;;;5.25;2.08;;;9.60;99.90;;;;;;4993479;28;20061;-76
2023/03/13 04:37:25;;;;;;;4.10;2.22;;;9.60;99.90;;;;;;4992473;28;20048;-76
2023/03/13 04:39:51;;;;;;;7.13;2.60;;;9.70;99.90;;;;;;4992842;28;20174;-76
2023/03/13 04:42:16;;;;;;;4.57;2.50;;;9.70;99.90;;;;;;4992605;28;20149;-76
2023/03/13 04:44:42;;;;;;;3.72;2.03;;;9.70;99.90;;;;;;4993298;28;20046;-76
2023/03/13 04:47:08;;;;;;;6.75;2.40;;;9.80;99.90;;;;;;4992346;28;20055;-76
2023/03/13 04:49:34;;;;;;;6.78;2.30;;;9.80;99.90;;;;;;4992798;28;20086;-76
2023/03/13 04:51:59;;;;;;;5.88;2.28;;;9.80;99.90;;;;;;4993070;28;20104;-76
2023/03/13 04:54:25;;;;;;;5.97;2.63;;;9.80;99.90;;;;;;4991924;28;20136;-76
2023/03/13 04:56:51;;;;;;;5.18;2.83;;;9.90;99.90;;;;;;4992500;28;20042;-76
2023/03/13 04:59:16;;;;;;;4.65;2.45;;;9.90;99.90;;;;;;4991588;28;20482;-76
2023/03/13 05:01:42;;;;;;;4.85;2.42;;;9.90;99.90;;;;;;4992912;28;20051;-76
2023/03/13 05:04:09;;;;;;;4.55;2.25;;;9.90;99.90;;;;;;4992840;28;20042;-76
2023/03/13 05:06:35;;;;;;;4.82;2.65;;;10.00;99.90;;;;;;4992592;28;20050;-76
2023/03/13 05:09:02;;;;;;;4.00;2.08;;;10.00;99.90;;;;;;4992436;28;20053;-77
2023/03/13 05:11:28;;;;;;;3.35;1.80;;;10.00;99.90;;;;;;4991952;28;20042;-76
2023/03/13 05:13:54;;;;;;;3.95;2.30;;;10.10;99.90;;;;;;4992892;28;20057;-77
2023/03/13 05:16:19;;;;;;;4.68;2.40;;;10.10;99.90;;;;;;4991226;28;20431;-77
2023/03/13 05:18:45;;;;;;;4.53;2.17;;;10.10;99.90;;;;;;4992686;28;20053;-77
2023/03/13 05:21:11;;;;;;;4.28;2.20;;;10.20;99.90;;;;;;4992273;28;20085;-77
2023/03/13 05:23:36;;;;;;;4.60;2.40;;;10.20;99.90;;;;;;4991649;28;20100;-77
2023/03/13 05:26:02;;;;;;;4.63;2.05;;;10.20;99.90;;;;;;4992267;28;20047;-77
2023/03/13 05:28:28;;;;;;;8.68;2.78;;;10.30;99.90;;;;;;4992269;28;20506;-76
2023/03/13 05:30:54;;;;;;;6.57;2.35;;;10.30;99.90;;;;;;4992625;28;20142;-76
2023/03/13 05:33:19;;;;;;;5.20;2.53;;;10.30;99.90;;;;;;4992113;28;20050;-76
2023/03/13 05:35:45;;;;;;;7.22;2.53;;;10.40;99.90;;;;;;4992472;28;20068;-77
2023/03/13 05:38:12;;;;;;;5.85;3.05;;;10.40;99.90;;;;;;4991739;28;20484;-77
2023/03/13 05:40:38;;;;;;;5.55;2.33;;;10.40;99.90;;;;;;4990173;28;20057;-77
2023/03/13 05:43:04;;;;;;;9.18;3.03;;;10.50;99.90;;;;;;4992530;28;20038;-77
2023/03/13 05:45:30;;;;;;;7.05;3.00;;;10.50;99.90;;;;;;4992108;28;20057;-76
2023/03/13 05:47:57;;;;;;;6.20;2.75;;;10.50;99.90;;;;;;4992365;28;20042;-76
2023/03/13 05:50:23;;;;;;;5.82;2.50;;;10.50;99.90;;;;;;4991650;28;20137;-76
2023/03/13 05:52:49;;;;;;;;;;;10.60;99.90;;;;;;4992733;28;20049;-77
2023/03/13 05:55:15;;;;;;;6.70;3.10;;;10.60;99.90;;;;;;4991726;28;20008;-77
2023/03/13 05:57:48;;;;;;;8.25;2.55;;;10.60;99.90;;;;;;4991387;28;20113;-77
2023/03/13 06:00:15;;;;;;;6.60;3.00;;;10.70;99.90;;;;;;4992256;28;20050;-77
2023/03/13 06:02:42;;;;;;;5.97;2.78;;;10.70;99.90;;;;;;4991697;28;20053;-77
2023/03/13 06:05:08;;;;;;;7.15;3.28;;;10.70;99.90;;;;;;4992177;28;20057;-76
2023/03/13 06:07:33;;;;;;;6.18;2.70;;;10.70;99.90;;;;;;4991408;28;20097;-76
2023/03/13 06:09:59;;;;;;;9.85;3.60;;;10.80;99.90;;;;;;4992211;28;20050;-76
2023/03/13 06:12:25;;;;;;;8.63;3.38;;;10.80;99.90;;;;;;4991423;28;20093;-76
2023/03/13 06:14:50;;;;;;;8.43;3.38;;;10.80;99.90;;;;;;4992138;28;20452;-77
2023/03/13 06:17:16;;;;;;;8.65;3.85;;;10.90;99.90;;;;;;4992020;28;20678;-77
2023/03/13 06:19:42;;;;;;;15.00;4.25;;;10.90;99.90;;;;;;4990802;28;20057;-76
2023/03/13 06:22:08;;;;;;;8.70;3.55;;;10.90;99.90;;;;;;4991829;28;20061;-77
2023/03/13 06:24:34;;;;;;;9.05;4.00;;;11.00;99.90;;;;;;4991306;28;20038;-77
2023/03/13 06:26:59;;;;;;;;;;;11.00;99.90;;;;;;4992464;28;20050;-77
2023/03/13 06:29:25;;;;;;;9.50;4.43;;;11.10;99.90;;;;;;4994592;28;19925;-76
2023/03/13 06:31:51;;;;;;;10.98;4.28;;;11.10;99.90;;;;;;4993423;28;20173;-77
2023/03/13 06:34:17;;;;;;;11.80;3.85;;;11.10;99.90;;;;;;4995772;28;20054;-77
2023/03/13 06:36:43;;;;;;;8.63;4.13;;;11.20;99.90;;;;;;4995200;28;20486;-77
2023/03/13 06:39:10;;;;;;;11.07;4.32;;;11.20;99.90;;;;;;4995143;28;20128;-78
2023/03/13 06:41:36;;;;;;;11.10;4.10;;;11.20;99.90;;;;;;4994612;28;20144;-77
2023/03/13 06:44:01;;;;;;;13.60;4.32;;;11.30;99.90;;;;;;4995568;28;20078;-78
2023/03/13 06:46:27;;;;;;;11.77;4.68;;;11.30;99.90;;;;;;4995242;28;20042;-77
2023/03/13 06:48:53;;;;;;;11.90;3.85;;;11.30;99.90;;;;;;4995430;28;20046;-78
2023/03/13 06:51:20;;;;;;;13.27;4.30;;;11.30;99.90;;;;;;4995369;28;20057;-77
2023/03/13 06:53:47;;;;;;;14.10;4.38;;;11.40;99.90;;;;;;4993719;28;20097;-77
2023/03/13 06:56:13;;;;;;;10.50;3.50;;;11.40;99.90;;;;;;4994919;28;20049;-77
2023/03/13 06:58:39;;;;;;;15.55;4.15;;;11.40;99.90;;;;;;4994904;28;20061;-76
2023/03/13 07:01:10;;;;;;;8.60;3.50;;;11.40;99.90;;;;;;4995361;28;20050;-78
2023/03/13 07:03:36;;;;;;;11.40;3.92;;;11.40;99.90;;;;;;4994567;28;20137;-77
2023/03/13 07:06:03;;;;;;;11.32;3.90;;;11.50;99.90;;;;;;4977906;28;20101;-77
2023/03/13 07:08:29;;;;;;;17.17;3.75;;;11.50;99.90;;;;;;4994199;28;20404;-77
2023/03/13 07:10:59;;;;;;;10.57;2.95;;;11.50;99.90;;;;;;4994688;28;20046;-78
2023/03/13 07:13:25;;;;;;;7.75;3.17;;;11.50;99.90;;;;;;4993890;28;20450;-78
2023/03/13 07:15:50;;;;;;;11.48;2.83;;;11.50;99.90;;;;;;4994451;28;20078;-83
2023/03/13 07:18:16;;;;;;;9.30;3.40;;;11.50;99.90;;;;;;4994770;28;20519;-79
2023/03/13 07:20:42;;;;;;;;;;;11.50;99.90;;;;;;4994977;28;20112;-77
2023/03/13 07:23:08;;;;;;;11.68;2.97;;;11.50;99.90;;;;;;4994247;28;20367;-77
2023/03/13 07:25:34;;;;;;;7.68;3.05;;;11.60;99.90;;;;;;4993966;28;20054;-78
2023/03/13 07:28:00;;;;;;;10.95;3.40;;;11.60;99.90;;;;;;4994792;28;20043;-78
2023/03/13 07:30:26;;;;;;;11.43;3.17;;;11.60;99.90;;;;;;4994850;28;20054;-78
2023/03/13 07:32:52;;;;;;;11.68;3.00;;;11.60;99.90;;;;;;4994355;28;20046;-78
2023/03/13 07:35:18;;;;;;;5.18;2.72;;;11.70;99.90;;;;;;4994561;28;20135;-79
2023/03/13 07:37:44;;;;;;;10.20;3.63;;;11.70;99.90;;;;;;4976234;28;20117;-79
2023/03/13 07:40:10;;;;;;;9.00;2.75;;;11.70;99.90;;;;;;4993284;28;20057;-82
2023/03/13 07:42:39;;;;;;;14.73;3.53;;;11.80;99.90;;;;;;4992917;28;20046;-78
2023/03/13 07:45:05;;;;;;;8.75;3.28;;;11.80;99.90;;;;;;4994066;28;20488;-79
2023/03/13 07:47:33;;;;;;;9.82;3.38;;;11.90;99.90;;;;;;4993792;28;20043;-79
2023/03/13 07:49:59;;;;;;;12.05;3.08;;;11.90;99.90;;;;;;4994271;28;20104;-78
2023/03/13 07:52:26;;;;;;;8.82;3.10;;;11.90;99.90;;;;;;4993641;28;20094;-76
2023/03/13 07:54:52;;;;;;;7.18;3.15;;;12.00;99.90;;;;;;4992548;28;20645;-76
2023/03/13 07:57:18;;;;;;;;;;;11.90;99.90;;;;;;4994085;28;20116;-75
2023/03/13 07:59:44;;;;;;;7.82;3.13;;;12.00;99.90;;;;;;4993871;28;19922;-75
2023/03/13 08:02:12;;;;;;;8.48;2.92;;;12.00;99.90;;;;;;4993912;28;20082;-76
2023/03/13 08:04:39;;;;;;;5.93;2.85;;;12.00;99.90;;;;;;4993724;28;20046;-76
2023/03/13 08:07:11;;;;;;;9.75;2.70;;;12.00;99.90;;;;;;4993708;28;20117;-73
2023/03/13 08:09:37;;;;;;;12.65;3.85;;;12.00;99.90;;;;;;4992109;28;20042;-76
2023/03/13 08:12:03;;;;;;;6.50;2.85;;;12.10;99.90;;;;;;4993533;28;20050;-74
2023/03/13 08:14:29;;;;;;;8.00;3.55;;;12.00;99.90;;;;;;4993957;28;20050;-76
2023/03/13 08:16:54;;;;;;;7.85;2.60;;;12.10;99.90;;;;;;4993440;28;20042;-76
2023/03/13 08:19:20;;;;;;;6.43;2.85;;;12.00;99.90;;;;;;4993741;28;20096;-75
2023/03/13 08:21:46;;;;;;;9.60;2.50;;;12.00;99.90;;;;;;4976206;28;20050;-76
2023/03/13 08:24:12;;;;;;;7.97;3.05;;;11.90;99.90;;;;;;4993334;28;20042;-77
2023/03/13 08:26:41;;;;;;;11.52;3.30;;;11.90;99.90;;;;;;4991928;28;20053;-77
2023/03/13 08:29:09;;;;;;;12.77;2.75;;;11.80;99.90;;;;;;4993436;28;20062;-73
2023/03/13 08:31:43;;;;;;;9.15;3.42;;;11.80;99.90;;;;;;4993156;28;20054;-76
2023/03/13 08:34:11;;;;;;;12.52;2.97;;;11.80;99.90;;;;;;4993057;28;20046;-76
2023/03/13 08:36:37;;;;;;;11.02;2.80;;;11.80;99.90;;;;;;4993137;28;20049;-77
2023/03/13 08:39:06;;;;;;;5.63;2.55;;;11.80;99.90;;;;;;4992880;28;20132;-77
2023/03/13 08:41:35;;;;;;;5.72;2.83;;;11.90;99.90;;;;;;4992978;28;20050;-76
2023/03/13 08:44:01;;;;;;;7.25;2.88;;;11.90;99.90;;;;;;4993110;28;20046;-76
2023/03/13 08:46:33;;;;;;;8.30;2.20;;;11.90;99.90;;;;;;4993397;28;20035;-77
2023/03/13 08:48:59;;;;;;;4.82;2.05;;;12.00;99.90;;;;;;4992749;28;20038;-76
2023/03/13 08:51:27;;;;;;;4.43;2.15;;;12.10;99.90;;;;;;4992928;28;20042;-78
2023/03/13 08:53:54;;;;;;;10.32;2.58;;;12.10;99.90;;;;;;4991049;28;20054;-74
2023/03/13 08:56:23;;;;;;;6.72;2.22;;;12.20;99.90;;;;;;4992168;28;20046;-74
2023/03/13 08:58:50;;;;;;;6.18;2.15;;;12.20;99.90;;;;;;4992258;28;20454;-74
2023/03/13 09:01:16;;;;;;;8.52;2.10;;;12.20;99.90;;;;;;4991104;28;20418;-74
2023/03/13 09:03:42;;;;;;;5.05;1.70;;;12.30;99.90;;;;;;4991780;28;20133;-74
2023/03/13 09:06:09;;;;;;;5.47;1.90;;;12.40;99.90;;;;;;4992445;28;20134;-74
2023/03/13 09:08:36;;;;;;;4.22;1.80;;;12.50;99.90;;;;;;4991623;28;20069;-75
2023/03/13 09:11:05;;;;;;;3.25;1.95;;;12.60;99.90;;;;;;4991189;28;20703;-75
2023/03/13 09:13:33;;;;;;;4.80;2.03;;;12.70;99.90;;;;;;4992100;28;20594;-74
2023/03/13 09:16:01;;;;;;;6.97;1.67;;;12.80;99.90;;;;;;4991490;28;20468;-75
2023/03/13 09:18:28;;;;;;;4.63;1.83;;;12.90;99.90;;;;;;4992032;28;20054;-72
2023/03/13 09:20:54;;;;;;;6.40;2.38;;;13.00;99.90;;;;;;4991423;28;20133;-75
2023/03/13 09:23:21;;;;;;;6.53;1.75;;;13.10;99.90;;;;;;4990848;28;20092;-75
2023/03/13 09:25:56;;;;;;;5.28;1.80;;;13.10;99.90;;;;;;4990728;28;20100;-75
2023/03/13 09:28:24;;;;;;;4.35;1.30;;;13.10;99.90;;;;;;4992063;28;20050;-74
2023/03/13 09:30:50;;;;;;;6.38;1.55;;;13.10;99.90;;;;;;4991173;28;20116;-75
2023/03/13 09:33:16;;;;;;;2.58;1.33;;;13.10;99.90;;;;;;4991696;28;20138;-75
2023/03/13 09:35:45;;;;;;;3.75;1.45;;;13.00;99.90;;;;;;4991603;28;20046;-75
2023/03/13 09:38:11;;;;;;;4.03;1.42;;;13.00;99.90;;;;;;4991288;28;20042;-75
2023/03/13 09:40:43;;;;;;;4.85;1.15;;;13.00;99.90;;;;;;4991535;28;20042;-76
2023/03/13 09:43:36;;;;;;;5.13;1.67;;;13.00;99.90;;;;;;4991901;28;20050;-75
2023/03/13 09:46:07;;;;;;;2.90;1.48;;;12.90;99.90;;;;;;4992139;28;20050;-75
2023/03/13 09:48:37;;;;;;;2.65;1.42;;;12.90;99.90;;;;;;4992403;28;20050;-75
2023/03/13 09:51:10;;;;;;;4.00;1.30;;;13.00;99.90;;;;;;4991952;28;20042;-75
2023/03/13 09:53:52;;;;;;;3.08;1.42;;;13.00;99.90;;;;;;4991830;28;20046;-75
2023/03/13 09:56:43;;;;;;;7.70;2.05;;;13.00;99.90;;;;;;4991685;28;20073;-74
2023/03/13 09:59:32;;;;;;;2.60;1.30;;;12.90;99.90;;;;;;4991860;28;20043;-74
2023/03/13 10:02:02;;;;;;;7.20;1.65;;;12.90;99.90;;;;;;4990819;28;20082;-74
2023/03/13 10:04:34;;;;;;;4.15;1.48;;;12.90;99.90;;;;;;4991671;28;20534;-75
2023/03/13 10:07:01;;;;;;;5.22;1.20;;;12.90;99.90;;;;;;4992502;28;20050;-75
2023/03/13 10:09:32;;;;;;;3.58;1.30;;;12.90;99.90;;;;;;4995261;28;20555;-75
2023/03/13 10:12:03;;;;;;;2.15;1.13;;;12.90;99.90;;;;;;4995379;28;20060;-75
2023/03/13 10:14:34;;;;;;;4.53;1.52;;;13.00;99.90;;;;;;4995829;28;20050;-75
2023/03/13 10:17:00;;;;;;;4.72;1.80;;;13.00;99.90;;;;;;4995256;28;20046;-74
2023/03/13 10:19:41;;;;;;;4.75;1.70;;;13.10;99.90;;;;;;4995659;28;20555;-75
2023/03/13 10:22:17;;;;;;;3.50;1.60;;;13.10;99.90;;;;;;4994517;28;20097;-75
2023/03/13 10:24:55;;;;;;;2.92;1.60;;;13.10;99.90;;;;;;4996051;28;20116;-75
2023/03/13 10:27:20;;;;;;;8.55;2.17;;;13.10;99.90;;;;;;4995128;28;20064;-76
2023/03/13 10:29:46;;;;;;;8.90;2.10;;;13.20;99.90;;;;;;4995853;28;20129;-76
2023/03/13 10:32:14;;;;;;;4.68;1.95;;;13.30;99.90;;;;;;4993861;28;20039;-80
2023/03/13 10:35:01;;;;;;;6.95;1.55;;;13.40;99.90;;;;;;4995733;28;20057;-78
2023/03/13 10:37:31;;;;;;;;;;;13.50;99.90;;;;;;4993951;28;20471;-77
2023/03/13 10:40:24;;;;;;;2.95;1.45;;;13.50;99.90;;;;;;4994904;28;19972;-77
2023/03/13 10:42:59;;;;;;;4.65;1.50;;;13.60;99.90;;;;;;4995454;28;20105;-77
2023/03/13 10:45:26;;;;;;;3.97;1.35;;;13.60;99.90;;;;;;4995554;28;20153;-76
2023/03/13 10:47:59;;;;;;;7.60;1.50;;;13.60;99.90;;;;;;4995217;28;20150;-76
2023/03/13 10:50:26;;;;;;;4.10;1.65;;;13.70;99.90;;;;;;4995351;28;20462;-76
2023/03/13 10:52:53;;;;;;;7.00;1.77;;;13.70;99.90;;;;;;4977263;28;20392;-77
2023/03/13 10:55:24;;;;;;;5.30;1.50;;;13.80;99.90;;;;;;4994311;28;20057;-77
2023/03/13 10:57:56;;;;;;;3.40;1.48;;;13.80;99.90;;;;;;4994556;28;20128;-77
2023/03/13 11:00:37;;;;;;;3.92;1.50;;;13.80;99.90;;;;;;4994761;28;20061;-77
2023/03/13 11:03:24;;;;;;;9.30;1.90;;;13.80;99.90;;;;;;4994484;28;20045;-77
2023/03/13 11:06:02;;;;;;;5.10;1.80;;;13.90;99.90;;;;;;4995013;28;20057;-77
2023/03/13 11:08:34;;;;;;;2.90;1.40;;;13.90;99.90;;;;;;4994460;28;20168;-77
2023/03/13 11:11:01;;;;;;;5.18;1.00;;;14.00;99.90;;;;;;4994084;28;20089;-78
2023/03/13 11:13:29;;;;;;;6.80;1.75;;;14.00;99.90;;;;;;4994835;28;20051;-78
2023/03/13 11:15:58;;;;;;;5.68;1.42;;;14.10;99.90;;;;;;4994808;28;20046;-78
2023/03/13 11:18:31;;;;;;;5.07;1.25;;;14.30;99.90;;;;;;4994221;28;20496;-78
2023/03/13 11:20:58;;;;;;;4.53;1.10;;;14.30;99.90;;;;;;4994371;28;20129;-77
2023/03/13 11:23:27;;;;;;;;;;;14.40;99.90;;;;;;4994591;28;20046;-78
2023/03/13 11:26:15;;;;;;;2.80;1.10;;;14.50;99.90;;;;;;4994201;28;20019;-77
2023/03/13 11:28:53;;;;;;;;;;;14.70;99.90;;;;;;4995115;28;20050;-78
2023/03/13 11:31:31;;;;;;;1.85;1.05;;;15.00;99.90;;;;;;4993872;28;19944;-77
2023/03/13 11:34:36;;;;;;;3.10;1.02;;;15.40;99.90;;;;;;4994139;28;20055;-77
2023/03/13 11:37:10;;;;;;;2.05;1.00;;;15.60;99.90;;;;;;4993388;28;20049;-77
2023/03/13 11:39:54;;;;;;;4.15;1.17;;;15.80;99.90;;;;;;4993507;28;20046;-77
2023/03/13 11:42:32;;;;;;;5.40;1.02;;;16.10;99.90;;;;;;4992982;28;20105;-77
2023/03/13 11:45:15;;;;;;;3.80;1.00;;;16.30;99.90;;;;;;4993629;28;20050;-79
2023/03/13 11:48:04;;;;;;;2.20;1.00;;;16.30;99.90;;;;;;4993571;28;20058;-78
2023/03/13 11:50:51;;;;;;;2.85;0.80;;;16.30;99.90;;;;;;4994101;28;20049;-78
2023/03/13 11:53:28;;;;;;;;;;;16.20;99.90;;;;;;4993484;28;20046;-79
2023/03/13 11:56:22;;;;;;;1.88;1.02;;;16.00;99.90;;;;;;4992928;28;19922;-77
2023/03/13 11:59:00;;;;;;;2.72;1.02;;;16.00;99.90;;;;;;4992523;28;20113;-77
2023/03/13 12:01:31;;;;;;;8.93;1.60;;;16.00;99.90;;;;;;4993451;28;20511;-77
2023/03/13 12:04:16;;;;;;;4.30;1.23;;;16.00;99.90;;;;;;4993901;28;20104;-78
2023/03/13 12:06:50;;;;;;;3.42;1.83;;;16.00;99.90;;;;;;4993918;28;20181;-79
2023/03/13 12:09:46;;;;;;;5.47;1.30;;;16.10;99.90;;;;;;4993356;28;20046;-78
2023/03/13 12:12:27;;;;;;;4.95;1.40;;;16.30;99.90;;;;;;4987123;28;20058;-78
2023/03/13 12:15:07;;;;;;;1.83;1.08;;;16.20;99.90;;;;;;4993944;28;20061;-77
2023/03/13 12:17:39;;;;;;;2.80;1.05;;;16.20;99.90;;;;;;4993136;28;20049;-77
2023/03/13 12:20:08;;;;;;;3.20;1.00;;;16.30;99.90;;;;;;4993342;28;20178;-80
2023/03/13 12:22:52;;;;;;;5.22;1.20;;;16.40;99.90;;;;;;4992460;28;20072;-77
2023/03/13 12:25:27;;;;;;;2.63;0.75;;;16.60;99.90;;;;;;4992457;28;20385;-77
2023/03/13 12:28:22;;;;;;;7.60;1.15;;;16.70;99.90;;;;;;4993262;28;20121;-77
2023/03/13 12:31:18;;;;;;;5.05;1.10;;;16.90;99.90;;;;;;4974452;28;20062;-79
2023/03/13 12:34:05;;;;;;;1.77;1.10;;;16.90;99.90;;;;;;4992871;28;20105;-78
2023/03/13 12:36:46;;;;;;;8.20;2.03;;;16.90;99.90;;;;;;4992577;28;20129;-78
2023/03/13 12:39:34;;;;;;;4.47;1.10;;;16.80;99.90;;;;;;4991026;28;20047;-79
2023/03/13 12:42:43;;;;;;;6.88;1.15;;;16.60;99.90;;;;;;4992002;28;20101;-79
2023/03/13 12:45:15;;;;;;;2.72;0.90;;;16.60;99.90;;;;;;4950715;29;20481;-79
2023/03/13 12:48:01;;;;;;;4.50;0.93;;;16.60;99.90;;;;;;4988063;28;20145;-79
2023/03/13 12:50:47;;;;;;;4.25;1.10;;;17.00;99.90;;;;;;4992202;28;20129;-79
2023/03/13 12:53:23;;;;;;;7.10;1.38;;;17.20;99.90;;;;;;4992081;28;20495;-80
2023/03/13 12:56:04;;;;;;;6.80;1.50;;;17.40;99.90;;;;;;4991702;28;20395;-77
2023/03/13 12:58:43;;;;;;;3.72;1.08;;;17.70;99.90;;;;;;4992729;28;20412;-78
2023/03/13 13:01:20;;;;;;;4.32;0.95;;;17.80;99.90;;;;;;4992685;28;20061;-80
2023/03/13 13:03:55;;;;;;;;;;;17.90;99.90;;;;;;4993445;28;20115;-78